createdAt,value
2023-01-08T05:15:08.471Z,1.10
2023-01-08T05:16:08.464Z,1.20
2023-01-08T05:17:08.410Z,1.30
2023-01-08T05:18:08.473Z,0.90
2023-01-08T05:19:09.240Z,1.20
2023-01-08T05:20:08.386Z,1.20
2023-01-08T05:21:08.412Z,1.20
2023-01-08T05:22:08.350Z,1.10
2023-01-08T05:23:08.531Z,1.10
2023-01-08T05:24:08.357Z,1.10
2023-01-08T05:25:08.323Z,0.90
2023-01-08T05:26:08.371Z,1.00
2023-01-08T05:27:08.292Z,0.90
2023-01-08T05:28:08.287Z,1.10
2023-01-08T05:29:08.339Z,1.00
2023-01-08T05:30:08.267Z,1.10
2023-01-08T05:31:08.305Z,1.20
2023-01-08T05:32:08.227Z,1.10
2023-01-08T05:33:08.210Z,1.10
2023-01-08T05:34:08.211Z,1.00
2023-01-08T05:35:08.207Z,1.20
2023-01-08T05:36:08.165Z,0.90
2023-01-08T05:37:08.145Z,0.80
2023-01-08T05:38:08.182Z,1.10
2023-01-08T05:39:08.164Z,1.00
2023-01-08T05:40:08.117Z,1.00
2023-01-08T05:41:08.217Z,1.10
2023-01-08T05:42:08.130Z,1.30
2023-01-08T05:43:08.068Z,1.00
2023-01-08T05:44:08.077Z,1.00
2023-01-08T05:45:08.036Z,1.10
2023-01-08T05:46:08.146Z,1.00
2023-01-08T05:47:08.017Z,1.00
2023-01-08T05:48:08.020Z,1.20
2023-01-08T05:49:08.003Z,1.10
2023-01-08T05:50:07.994Z,1.30
2023-01-08T05:51:07.969Z,0.90
2023-01-08T05:52:07.964Z,1.20
2023-01-08T05:53:07.936Z,1.20
2023-01-08T05:54:07.948Z,1.20
2023-01-08T05:55:07.915Z,1.10
2023-01-08T05:56:09.316Z,1.00
2023-01-08T05:57:07.897Z,1.20
2023-01-08T05:58:07.903Z,1.10
2023-01-08T05:59:07.908Z,1.00
2023-01-08T06:00:07.848Z,1.00
2023-01-08T06:01:07.907Z,1.00
2023-01-08T06:02:07.825Z,1.20
2023-01-08T06:03:07.903Z,1.10
2023-01-08T06:04:07.864Z,1.10
2023-01-08T06:05:07.795Z,0.90
2023-01-08T06:06:07.778Z,1.00
2023-01-08T06:07:07.757Z,0.90
2023-01-08T06:08:08.751Z,0.90
2023-01-08T06:09:07.727Z,0.80
2023-01-08T06:10:07.744Z,0.90
2023-01-08T06:11:07.723Z,0.90
2023-01-08T06:12:07.704Z,0.90
2023-01-08T06:13:07.677Z,1.10
2023-01-08T06:14:07.675Z,0.90
2023-01-08T06:15:07.691Z,1.10
2023-01-08T06:16:07.760Z,1.00
2023-01-08T06:17:07.633Z,0.90
2023-01-08T06:18:07.615Z,1.00
2023-01-08T06:19:07.593Z,1.00
2023-01-08T06:20:07.611Z,1.00
2023-01-08T06:21:07.563Z,1.00
2023-01-08T06:22:07.563Z,1.20
2023-01-08T06:23:07.544Z,1.00
2023-01-08T06:24:07.547Z,1.10
2023-01-08T06:25:07.538Z,1.10
2023-01-08T06:26:07.531Z,1.00
2023-01-08T06:27:07.508Z,1.00
2023-01-08T06:28:07.486Z,1.10
2023-01-08T06:29:07.473Z,0.80
2023-01-08T06:30:07.479Z,1.00
2023-01-08T06:31:07.501Z,0.90
2023-01-08T06:32:07.446Z,0.90
2023-01-08T06:33:07.444Z,0.90
2023-01-08T06:34:07.458Z,0.90
2023-01-08T06:35:07.432Z,0.90
2023-01-08T06:36:07.397Z,0.90
2023-01-08T06:37:07.386Z,1.00
2023-01-08T06:38:07.358Z,1.00
2023-01-08T06:39:07.357Z,1.00
2023-01-08T06:40:07.353Z,1.00
2023-01-08T06:41:07.328Z,0.90
2023-01-08T06:42:07.302Z,1.00
2023-01-08T06:43:07.312Z,0.90
2023-01-08T06:44:07.306Z,1.00
2023-01-08T06:45:07.284Z,0.90
2023-01-08T06:46:07.336Z,1.20
2023-01-08T06:47:07.248Z,1.10
2023-01-08T06:48:07.282Z,0.80
2023-01-08T06:49:07.227Z,0.90
2023-01-08T06:50:07.234Z,0.90
2023-01-08T06:51:07.231Z,0.90
2023-01-08T06:52:07.190Z,0.90
2023-01-08T06:53:07.185Z,0.90
2023-01-08T06:54:07.141Z,0.80
2023-01-08T06:55:07.151Z,0.70
2023-01-08T06:56:07.119Z,0.80
2023-01-08T06:57:07.115Z,0.80
2023-01-08T06:58:07.096Z,0.70
2023-01-08T06:59:07.089Z,0.80
2023-01-08T07:00:07.089Z,0.80
2023-01-08T07:01:07.080Z,0.80
2023-01-08T07:02:07.190Z,0.80
2023-01-08T07:03:07.206Z,0.80
2023-01-08T07:04:07.020Z,0.80
2023-01-08T07:05:07.026Z,0.80
2023-01-08T07:06:06.988Z,0.80
2023-01-08T07:07:06.985Z,0.80
2023-01-08T07:08:06.971Z,0.80
2023-01-08T07:09:06.957Z,0.80
2023-01-08T07:10:07.007Z,0.70
2023-01-08T07:11:06.927Z,0.70
2023-01-08T07:12:06.920Z,0.70
2023-01-08T07:13:06.942Z,0.70
2023-01-08T07:14:06.900Z,0.80
2023-01-08T07:15:06.892Z,0.80
2023-01-08T07:16:06.916Z,0.70
2023-01-08T07:17:06.857Z,0.70
2023-01-08T07:18:06.834Z,0.60
2023-01-08T07:19:06.838Z,0.60
2023-01-08T07:20:06.811Z,0.60
2023-01-08T07:21:06.817Z,0.60
2023-01-08T07:22:06.789Z,0.70
2023-01-08T07:23:06.796Z,0.60
2023-01-08T07:24:06.767Z,0.50
2023-01-08T07:25:06.775Z,0.50
2023-01-08T07:26:06.943Z,0.70
2023-01-08T07:27:06.757Z,0.60
2023-01-08T07:28:06.736Z,0.70
2023-01-08T07:29:06.722Z,0.70
2023-01-08T07:30:08.379Z,0.50
2023-01-08T07:31:06.757Z,0.50
2023-01-08T07:32:06.687Z,0.50
2023-01-08T07:33:06.698Z,0.50
2023-01-08T07:34:06.670Z,0.80
2023-01-08T07:35:06.653Z,0.40
2023-01-08T07:36:06.628Z,0.50
2023-01-08T07:37:06.599Z,0.40
2023-01-08T07:38:06.585Z,0.50
2023-01-08T07:39:06.577Z,0.50
2023-01-08T07:40:06.553Z,0.60
2023-01-08T07:41:06.557Z,0.40
2023-01-08T07:42:06.606Z,0.40
2023-01-08T07:43:06.525Z,0.40
2023-01-08T07:44:06.514Z,0.50
2023-01-08T07:45:06.499Z,0.40
2023-01-08T07:46:06.592Z,0.50
2023-01-08T07:47:06.495Z,0.60
2023-01-08T07:48:06.452Z,0.60
2023-01-08T07:49:06.443Z,0.40
2023-01-08T07:50:06.475Z,0.70
2023-01-08T07:51:06.482Z,0.50
2023-01-08T07:52:06.404Z,0.60
2023-01-08T07:53:06.393Z,0.60
2023-01-08T07:54:06.413Z,0.50
2023-01-08T07:55:06.399Z,0.60
2023-01-08T07:56:06.390Z,1.90
2023-01-08T07:57:06.342Z,0.70
2023-01-08T07:58:06.319Z,0.60
2023-01-08T07:59:06.365Z,0.70
2023-01-08T08:00:06.318Z,0.70
2023-01-08T08:01:06.359Z,0.70
2023-01-08T08:02:06.471Z,0.60
2023-01-08T08:03:06.372Z,0.70
2023-01-08T08:04:06.276Z,0.60
2023-01-08T08:05:06.273Z,0.70
2023-01-08T08:06:06.250Z,0.90
2023-01-08T08:07:06.209Z,0.70
2023-01-08T08:08:06.198Z,0.70
2023-01-08T08:09:06.179Z,0.70
2023-01-08T08:10:06.208Z,0.60
2023-01-08T08:11:06.169Z,0.40
2023-01-08T08:12:06.147Z,0.70
2023-01-08T08:13:06.143Z,0.60
2023-01-08T08:14:06.123Z,0.70
2023-01-08T08:15:06.108Z,0.60
2023-01-08T08:16:06.178Z,0.70
2023-01-08T08:17:06.078Z,0.70
2023-01-08T08:18:06.084Z,0.70
2023-01-08T08:19:06.051Z,2.40
2023-01-08T08:20:06.039Z,3.10
2023-01-08T08:21:06.045Z,5.10
2023-01-08T08:22:06.078Z,4.30
2023-01-08T08:23:06.018Z,2.70
2023-01-08T08:24:06.001Z,2.00
2023-01-08T08:25:05.975Z,3.80
2023-01-08T08:26:05.963Z,2.30
2023-01-08T08:27:05.958Z,1.90
2023-01-08T08:28:05.953Z,1.80
2023-01-08T08:29:05.920Z,1.80
2023-01-08T08:30:05.935Z,1.50
2023-01-08T08:31:05.960Z,1.60
2023-01-08T08:32:05.909Z,2.10
2023-01-08T08:33:05.866Z,1.50
2023-01-08T08:34:05.860Z,1.60
2023-01-08T08:35:05.851Z,2.40
2023-01-08T08:36:05.834Z,1.80
2023-01-08T08:37:05.829Z,1.70
2023-01-08T08:38:05.824Z,1.20
2023-01-08T08:39:05.785Z,1.30
2023-01-08T08:40:05.785Z,1.20
2023-01-08T08:41:05.786Z,1.20
2023-01-08T08:42:05.773Z,1.30
2023-01-08T08:43:05.748Z,1.00
2023-01-08T08:44:05.724Z,1.00
2023-01-08T08:45:05.734Z,1.10
2023-01-08T08:46:05.719Z,1.10
2023-01-08T08:47:05.949Z,0.80
2023-01-08T08:48:05.676Z,1.00
2023-01-08T08:49:05.685Z,0.80
2023-01-08T08:50:05.647Z,0.90
2023-01-08T08:51:05.641Z,0.80
2023-01-08T08:52:05.636Z,0.90
2023-01-08T08:53:05.602Z,0.80
2023-01-08T08:54:05.596Z,0.90
2023-01-08T08:55:05.584Z,0.90
2023-01-08T08:56:05.570Z,0.90
2023-01-08T08:57:05.581Z,1.10
2023-01-08T08:58:05.560Z,0.90
2023-01-08T08:59:05.540Z,1.10
2023-01-08T09:00:05.534Z,1.10
2023-01-08T09:01:05.502Z,1.20
2023-01-08T09:02:05.682Z,1.30
2023-01-08T09:03:05.652Z,1.00
2023-01-08T09:04:05.486Z,0.90
2023-01-08T09:05:05.466Z,1.10
2023-01-08T09:06:05.442Z,1.00
2023-01-08T09:07:05.432Z,0.90
2023-01-08T09:08:05.428Z,0.80
2023-01-08T09:09:05.406Z,1.00
2023-01-08T09:10:05.391Z,0.60
2023-01-08T09:11:05.373Z,0.80
2023-01-08T09:12:05.372Z,0.80
2023-01-08T09:13:05.358Z,0.90
2023-01-08T09:14:05.352Z,0.60
2023-01-08T09:15:05.324Z,0.60
2023-01-08T09:16:05.399Z,0.60
2023-01-08T09:17:05.312Z,0.70
2023-01-08T09:18:05.296Z,0.70
2023-01-08T09:19:05.271Z,0.50
2023-01-08T09:20:05.263Z,0.90
2023-01-08T09:21:05.239Z,0.70
2023-01-08T09:22:05.256Z,0.70
2023-01-08T09:23:05.229Z,0.90
2023-01-08T09:24:05.211Z,0.60
2023-01-08T09:25:05.192Z,0.60
2023-01-08T09:26:05.190Z,0.60
2023-01-08T09:27:05.178Z,0.50
2023-01-08T09:28:05.157Z,0.60
2023-01-08T09:29:05.137Z,0.70
2023-01-08T09:30:05.126Z,0.60
2023-01-08T09:31:05.142Z,0.80
2023-01-08T09:32:05.141Z,0.70
2023-01-08T09:33:05.100Z,0.60
2023-01-08T09:34:05.099Z,0.80
2023-01-08T09:35:05.060Z,0.70
2023-01-08T09:36:05.050Z,0.70
2023-01-08T09:37:05.039Z,0.70
2023-01-08T09:38:05.042Z,0.60
2023-01-08T09:39:05.019Z,0.50
2023-01-08T09:40:05.001Z,0.70
2023-01-08T09:41:04.984Z,0.80
2023-01-08T09:42:04.988Z,0.60
2023-01-08T09:43:04.965Z,0.70
2023-01-08T09:44:04.950Z,0.80
2023-01-08T09:45:04.954Z,0.70
2023-01-08T09:46:04.919Z,0.70
2023-01-08T09:47:04.951Z,0.70
2023-01-08T09:48:04.907Z,0.60
2023-01-08T09:49:04.879Z,0.80
2023-01-08T09:50:04.892Z,0.70
2023-01-08T09:51:04.847Z,0.90
2023-01-08T09:52:04.858Z,0.90
2023-01-08T09:53:04.856Z,0.70
2023-01-08T09:54:04.817Z,0.70
2023-01-08T09:55:04.842Z,0.60
2023-01-08T09:56:10.184Z,0.70
2023-01-08T09:57:05.776Z,0.80
2023-01-08T09:58:04.768Z,0.60
2023-01-08T09:59:04.795Z,0.70
2023-01-08T10:00:04.740Z,0.70
2023-01-08T10:01:04.806Z,0.70
2023-01-08T10:02:04.825Z,0.70
2023-01-08T10:03:04.770Z,0.80
2023-01-08T10:04:04.693Z,0.70
2023-01-08T10:05:04.666Z,1.00
2023-01-08T10:06:04.659Z,0.80
2023-01-08T10:07:04.685Z,0.80
2023-01-08T10:08:04.646Z,1.00
2023-01-08T10:09:07.579Z,1.00
2023-01-08T10:10:04.630Z,0.80
2023-01-08T10:11:04.585Z,1.20
2023-01-08T10:12:04.599Z,0.80
2023-01-08T10:13:04.579Z,0.90
2023-01-08T10:14:04.570Z,0.90
2023-01-08T10:15:04.534Z,0.80
2023-01-08T10:16:04.619Z,0.80
2023-01-08T10:17:04.955Z,0.90
2023-01-08T10:18:04.508Z,1.00
2023-01-08T10:19:04.507Z,0.90
2023-01-08T10:20:04.475Z,0.80
2023-01-08T10:21:04.506Z,0.80
2023-01-08T10:22:04.448Z,1.00
2023-01-08T10:23:04.456Z,0.80
2023-01-08T10:24:04.460Z,0.90
2023-01-08T10:25:04.431Z,0.80
2023-01-08T10:26:04.421Z,1.20
2023-01-08T10:27:04.400Z,1.00
2023-01-08T10:28:04.493Z,1.40
2023-01-08T10:29:04.365Z,1.00
2023-01-08T10:30:04.347Z,1.10
2023-01-08T10:31:04.358Z,0.90
2023-01-08T10:32:04.325Z,0.90
2023-01-08T10:33:04.336Z,1.20
2023-01-08T10:34:04.307Z,1.10
2023-01-08T10:35:04.290Z,0.90
2023-01-08T10:36:04.269Z,0.70
2023-01-08T10:37:04.283Z,1.00
2023-01-08T10:38:04.380Z,0.90
2023-01-08T10:39:04.342Z,0.80
2023-01-08T10:40:04.221Z,0.80
2023-01-08T10:41:04.251Z,1.00
2023-01-08T10:42:04.193Z,0.90
2023-01-08T10:43:04.207Z,1.00
2023-01-08T10:44:04.169Z,0.90
2023-01-08T10:45:06.926Z,1.00
2023-01-08T10:46:04.197Z,0.90
2023-01-08T10:47:04.131Z,1.00
2023-01-08T10:48:04.107Z,0.80
2023-01-08T10:49:04.111Z,1.00
2023-01-08T10:50:04.109Z,1.00
2023-01-08T10:51:05.111Z,1.00
2023-01-08T10:52:04.072Z,0.80
2023-01-08T10:53:04.054Z,1.00
2023-01-08T10:54:04.058Z,1.00
2023-01-08T10:55:04.185Z,1.00
2023-01-08T10:56:04.021Z,1.00
2023-01-08T10:57:03.998Z,1.10
2023-01-08T10:58:03.976Z,0.80
2023-01-08T10:59:04.043Z,1.00
2023-01-08T11:00:03.976Z,1.30
2023-01-08T11:01:03.970Z,0.80
2023-01-08T11:02:04.022Z,1.10
2023-01-08T11:03:03.961Z,0.80
2023-01-08T11:04:03.917Z,1.10
2023-01-08T11:05:03.889Z,0.90
2023-01-08T11:06:03.890Z,1.20
2023-01-08T11:07:03.874Z,0.90
2023-01-08T11:08:03.863Z,1.10
2023-01-08T11:09:03.868Z,0.90
2023-01-08T11:10:03.824Z,0.80
2023-01-08T11:12:36.752Z,0.80
2023-01-08T11:13:12.645Z,1.00
2023-01-08T11:14:12.653Z,0.90
2023-01-08T11:15:12.615Z,0.80
2023-01-08T11:16:12.619Z,0.90
2023-01-08T11:17:12.638Z,1.10
2023-01-08T11:18:12.612Z,1.00
2023-01-08T11:19:12.585Z,1.10
2023-01-08T11:20:12.612Z,1.00
2023-01-08T11:21:12.589Z,1.00
2023-01-08T11:22:12.536Z,1.00
2023-01-08T11:23:12.547Z,1.10
2023-01-08T11:24:12.587Z,0.90
2023-01-08T11:25:13.977Z,1.00
2023-01-08T11:26:12.506Z,0.80
2023-01-08T11:27:12.475Z,1.20
2023-01-08T11:28:12.497Z,0.90
2023-01-08T11:29:12.511Z,1.10
2023-01-08T11:30:12.447Z,1.40
2023-01-08T11:31:12.500Z,1.10
2023-01-08T11:32:12.414Z,1.00
2023-01-08T11:33:12.512Z,1.20
2023-01-08T11:34:12.394Z,1.00
2023-01-08T11:35:12.364Z,0.90
2023-01-08T11:36:14.769Z,0.80
2023-01-08T11:37:12.353Z,0.70
2023-01-08T11:38:12.366Z,0.90
2023-01-08T11:39:12.417Z,0.80
2023-01-08T11:40:12.318Z,0.70
2023-01-08T11:41:12.307Z,0.80
2023-01-08T11:42:12.286Z,0.80
2023-01-08T11:43:12.270Z,0.80
2023-01-08T11:44:12.319Z,1.10
2023-01-08T11:45:12.250Z,0.80
2023-01-08T11:46:12.268Z,0.80
2023-01-08T11:47:12.221Z,0.60
2023-01-08T11:48:14.466Z,0.80
2023-01-08T11:49:12.219Z,0.80
2023-01-08T11:50:12.214Z,0.90
2023-01-08T11:51:12.187Z,0.70
2023-01-08T11:52:12.160Z,0.90
2023-01-08T11:53:12.187Z,0.90
2023-01-08T11:54:14.260Z,0.80
2023-01-08T11:55:12.121Z,0.80
2023-01-08T11:56:12.117Z,0.90
2023-01-08T11:57:12.088Z,0.80
2023-01-08T11:58:12.089Z,0.80
2023-01-08T11:59:12.100Z,0.80
2023-01-08T12:00:14.180Z,0.80
2023-01-08T12:01:12.100Z,1.10
2023-01-08T12:02:12.038Z,0.90
2023-01-08T12:03:12.028Z,0.70
2023-01-08T12:04:12.041Z,1.00
2023-01-08T12:05:12.010Z,0.80
2023-01-08T12:06:11.986Z,0.60
2023-01-08T12:07:11.971Z,0.80
2023-01-08T12:08:11.965Z,0.70
2023-01-08T12:09:11.933Z,0.60
2023-01-08T12:10:11.943Z,0.70
2023-01-08T12:11:11.901Z,0.80
2023-01-08T12:12:13.464Z,0.80
2023-01-08T12:13:11.880Z,0.70
2023-01-08T12:14:11.876Z,1.00
2023-01-08T12:15:11.860Z,0.60
2023-01-08T12:16:11.868Z,0.90
2023-01-08T12:17:11.835Z,0.60
2023-01-08T12:18:11.820Z,0.70
2023-01-08T12:19:11.813Z,0.80
2023-01-08T12:20:11.821Z,0.60
2023-01-08T12:21:11.781Z,0.80
2023-01-08T12:22:11.790Z,0.70
2023-01-08T12:23:11.751Z,0.80
2023-01-08T12:24:12.112Z,0.80
2023-01-08T12:25:11.732Z,0.80
2023-01-08T12:26:11.714Z,0.80
2023-01-08T12:27:11.698Z,0.60
2023-01-08T12:28:11.711Z,0.70
2023-01-08T12:29:11.677Z,0.70
2023-01-08T12:30:11.682Z,0.60
2023-01-08T12:31:11.717Z,0.90
2023-01-08T12:32:11.718Z,0.80
2023-01-08T12:33:11.611Z,0.60
2023-01-08T12:34:11.610Z,0.80
2023-01-08T12:35:11.613Z,0.70
2023-01-08T12:36:11.581Z,0.70
2023-01-08T12:37:11.561Z,0.60
2023-01-08T12:38:11.579Z,0.80
2023-01-08T12:39:11.548Z,0.50
2023-01-08T12:40:11.564Z,0.80
2023-01-08T12:41:11.540Z,0.70
2023-01-08T12:42:11.508Z,0.70
2023-01-08T12:43:11.492Z,0.70
2023-01-08T12:44:11.481Z,0.60
2023-01-08T12:45:11.502Z,0.80
2023-01-08T12:46:11.523Z,0.70
2023-01-08T12:47:11.440Z,1.60
2023-01-08T12:48:11.453Z,0.70
2023-01-08T12:49:11.421Z,0.70
2023-01-08T12:50:11.419Z,0.70
2023-01-08T12:51:11.381Z,0.70
2023-01-08T12:52:11.383Z,0.60
2023-01-08T12:53:11.358Z,0.70
2023-01-08T12:54:11.372Z,0.70
2023-01-08T12:55:11.363Z,0.60
2023-01-08T12:56:11.320Z,0.80
2023-01-08T12:57:11.311Z,0.70
2023-01-08T12:58:11.289Z,0.80
2023-01-08T12:59:11.290Z,1.10
2023-01-08T13:00:11.282Z,0.80
2023-01-08T13:01:11.327Z,0.60
2023-01-08T13:02:11.321Z,0.70
2023-01-08T13:03:11.231Z,0.60
2023-01-08T13:04:11.254Z,0.60
2023-01-08T13:05:11.236Z,0.70
2023-01-08T13:06:11.215Z,0.80
2023-01-08T13:07:11.180Z,0.80
2023-01-08T13:08:11.178Z,1.10
2023-01-08T13:09:11.157Z,1.00
2023-01-08T13:10:11.160Z,1.80
2023-01-08T13:11:11.161Z,1.90
2023-01-08T13:12:11.110Z,1.60
2023-01-08T13:13:11.107Z,0.90
2023-01-08T13:14:11.087Z,0.90
2023-01-08T13:15:11.087Z,1.20
2023-01-08T13:16:11.085Z,0.80
2023-01-08T13:17:11.067Z,0.70
2023-01-08T13:18:11.039Z,0.80
2023-01-08T13:19:11.036Z,0.80
2023-01-08T13:20:11.027Z,0.30
2023-01-08T13:21:11.015Z,0.40
2023-01-08T13:22:10.981Z,0.60
2023-01-08T13:23:10.966Z,0.70
2023-01-08T13:24:10.946Z,0.40
2023-01-08T13:25:10.978Z,0.60
2023-01-08T13:26:10.948Z,0.80
2023-01-08T13:27:10.933Z,0.70
2023-01-08T13:28:10.918Z,0.50
2023-01-08T13:29:10.911Z,1.40
2023-01-08T13:30:10.884Z,0.70
2023-01-08T13:31:10.897Z,0.50
2023-01-08T13:32:10.855Z,1.20
2023-01-08T13:33:10.852Z,1.30
2023-01-08T13:34:10.837Z,1.30
2023-01-08T13:35:10.815Z,1.30
2023-01-08T13:36:10.813Z,0.90
2023-01-08T13:37:23.163Z,0.70
2023-01-08T13:38:11.771Z,1.30
2023-01-08T13:39:10.776Z,1.60
2023-01-08T13:40:10.754Z,1.50
2023-01-08T13:41:10.771Z,1.40
2023-01-08T13:42:10.749Z,1.40
2023-01-08T13:43:10.753Z,1.10
2023-01-08T13:44:10.734Z,2.20
2023-01-08T13:45:10.695Z,1.80
2023-01-08T13:46:10.752Z,1.90
2023-01-08T13:47:10.703Z,1.80
2023-01-08T13:48:10.663Z,1.70
2023-01-08T13:49:10.650Z,1.40
2023-01-08T13:50:10.637Z,1.80
2023-01-08T13:51:10.621Z,1.40
2023-01-08T13:52:10.621Z,0.80
2023-01-08T13:53:10.655Z,0.80
2023-01-08T13:54:10.597Z,0.90
2023-01-08T13:55:10.641Z,1.10
2023-01-08T13:56:10.612Z,0.90
2023-01-08T13:57:10.583Z,1.90
2023-01-08T13:58:10.542Z,0.80
2023-01-08T13:59:10.511Z,0.70
2023-01-08T14:00:10.511Z,0.80
2023-01-08T14:01:10.632Z,0.50
2023-01-08T14:02:10.626Z,0.70
2023-01-08T14:03:10.471Z,0.60
2023-01-08T14:04:10.442Z,0.80
2023-01-08T14:05:10.439Z,0.70
2023-01-08T14:06:10.441Z,0.70
2023-01-08T14:07:10.490Z,0.70
2023-01-08T14:08:10.407Z,0.70
2023-01-08T14:09:10.388Z,0.80
2023-01-08T14:10:10.429Z,0.40
2023-01-08T14:11:10.361Z,0.80
2023-01-08T14:12:10.369Z,0.50
2023-01-08T14:13:10.366Z,0.60
2023-01-08T14:14:10.337Z,0.60
2023-01-08T14:15:10.359Z,0.60
2023-01-08T14:16:10.409Z,0.70
2023-01-08T14:17:10.301Z,0.50
2023-01-08T14:18:10.268Z,0.50
2023-01-08T14:19:10.258Z,0.60
2023-01-08T14:20:10.271Z,0.70
2023-01-08T14:21:10.230Z,0.70
2023-01-08T14:22:10.258Z,0.90
2023-01-08T14:23:10.209Z,0.80
2023-01-08T14:24:10.207Z,0.60
2023-01-08T14:25:12.303Z,0.80
2023-01-08T14:26:10.186Z,1.00
2023-01-08T14:27:10.160Z,1.00
2023-01-08T14:28:10.147Z,1.20
2023-01-08T14:29:10.147Z,1.30
2023-01-08T14:30:10.157Z,0.60
2023-01-08T14:31:10.155Z,0.90
2023-01-08T14:32:10.107Z,1.00
2023-01-08T14:33:10.076Z,0.80
2023-01-08T14:34:10.083Z,0.80
2023-01-08T14:35:10.058Z,0.80
2023-01-08T14:36:10.073Z,0.90
2023-01-08T14:37:10.048Z,1.00
2023-01-08T14:38:10.016Z,1.00
2023-01-08T14:39:09.999Z,0.80
2023-01-08T14:40:10.009Z,0.70
2023-01-08T14:41:09.987Z,0.70
2023-01-08T14:42:09.985Z,0.70
2023-01-08T14:43:09.957Z,1.00
2023-01-08T14:44:10.022Z,0.70
2023-01-08T14:45:09.929Z,0.70
2023-01-08T14:46:09.936Z,0.60
2023-01-08T14:47:09.921Z,0.90
2023-01-08T14:48:09.911Z,0.90
2023-01-08T14:49:09.874Z,0.80
2023-01-08T14:50:09.884Z,0.80
2023-01-08T14:51:09.852Z,0.90
2023-01-08T14:52:09.854Z,1.00
2023-01-08T14:53:09.822Z,0.90
2023-01-08T14:54:09.836Z,1.40
2023-01-08T14:55:09.812Z,1.90
2023-01-08T14:56:09.792Z,1.20
2023-01-08T14:57:09.783Z,1.00
2023-01-08T14:58:09.785Z,1.60
2023-01-08T14:59:09.754Z,1.10
2023-01-08T15:00:09.760Z,0.90
2023-01-08T15:01:09.854Z,0.80
2023-01-08T15:02:09.874Z,0.80
2023-01-08T15:03:09.695Z,1.00
2023-01-08T15:04:09.711Z,0.50
2023-01-08T15:05:09.677Z,0.50
2023-01-08T15:06:09.663Z,0.70
2023-01-08T15:07:09.670Z,0.60
2023-01-08T15:08:09.631Z,0.80
2023-01-08T15:09:10.295Z,1.10
2023-01-08T15:10:09.622Z,0.70
2023-01-08T15:11:09.596Z,0.70
2023-01-08T15:12:09.591Z,0.80
2023-01-08T15:13:09.586Z,0.80
2023-01-08T15:14:09.567Z,0.60
2023-01-08T15:15:09.540Z,0.70
2023-01-08T15:16:09.561Z,0.90
2023-01-08T15:17:09.520Z,0.90
2023-01-08T15:18:09.521Z,1.00
2023-01-08T15:19:09.491Z,1.20
2023-01-08T15:20:09.495Z,1.00
2023-01-08T15:21:09.473Z,0.80
2023-01-08T15:22:09.455Z,1.30
2023-01-08T15:23:09.449Z,1.00
2023-01-08T15:24:09.433Z,0.90
2023-01-08T15:25:09.420Z,0.90
2023-01-08T15:26:09.419Z,0.80
2023-01-08T15:27:09.389Z,0.90
2023-01-08T15:28:09.420Z,1.20
2023-01-08T15:29:09.369Z,1.60
2023-01-08T15:30:09.430Z,2.00
2023-01-08T15:31:09.347Z,2.20
2023-01-08T15:32:09.352Z,1.80
2023-01-08T15:33:09.340Z,2.00
2023-01-08T15:34:09.310Z,2.40
2023-01-08T15:35:09.289Z,3.60
2023-01-08T15:36:09.275Z,4.00
2023-01-08T15:37:09.257Z,3.10
2023-01-08T15:38:09.260Z,2.40
2023-01-08T15:39:09.227Z,2.10
2023-01-08T15:40:09.250Z,2.10
2023-01-08T15:41:09.216Z,2.40
2023-01-08T15:42:09.209Z,1.90
2023-01-08T15:43:09.206Z,2.20
2023-01-08T15:44:09.181Z,2.40
2023-01-08T15:45:09.158Z,2.90
2023-01-08T15:46:09.179Z,2.50
2023-01-08T15:47:09.129Z,2.60
2023-01-08T15:48:09.139Z,2.40
2023-01-08T15:49:09.105Z,2.30
2023-01-08T15:50:09.120Z,2.50
2023-01-08T15:51:09.086Z,2.20
2023-01-08T15:52:09.066Z,2.20
2023-01-08T15:53:09.091Z,2.20
2023-01-08T15:54:09.045Z,2.20
2023-01-08T15:55:09.026Z,1.90
2023-01-08T15:56:09.029Z,2.10
2023-01-08T15:57:08.993Z,2.20
2023-01-08T15:58:09.006Z,2.10
2023-01-08T15:59:08.975Z,2.10
2023-01-08T16:00:08.965Z,2.10
2023-01-08T16:01:09.027Z,2.30
2023-01-08T16:02:09.068Z,2.30
2023-01-08T16:03:08.958Z,2.00
2023-01-08T16:04:08.939Z,2.10
2023-01-08T16:05:08.897Z,2.20
2023-01-08T16:06:08.902Z,2.40
2023-01-08T16:07:08.863Z,1.80
2023-01-08T16:08:08.865Z,2.60
2023-01-08T16:09:08.858Z,2.50
2023-01-08T16:10:08.843Z,1.90
2023-01-08T16:11:08.834Z,2.20
2023-01-08T16:12:08.856Z,2.80
2023-01-08T16:13:11.788Z,2.50
2023-01-08T16:14:08.781Z,2.20
2023-01-08T16:15:08.772Z,2.20
2023-01-08T16:16:08.778Z,2.30
2023-01-08T16:17:08.764Z,2.40
2023-01-08T16:18:08.832Z,2.30
2023-01-08T16:19:08.752Z,2.10
2023-01-08T16:20:08.704Z,2.40
2023-01-08T16:21:08.702Z,2.20
2023-01-08T16:22:08.680Z,2.30
2023-01-08T16:23:08.687Z,2.20
2023-01-08T16:24:08.684Z,2.20
2023-01-08T16:25:08.631Z,2.00
2023-01-08T16:26:08.640Z,2.40
2023-01-08T16:27:08.618Z,2.90
2023-01-08T16:28:08.612Z,2.20
2023-01-08T16:29:08.589Z,2.20
2023-01-08T16:30:08.570Z,1.80
2023-01-08T16:31:08.617Z,2.70
2023-01-08T16:32:08.540Z,2.00
2023-01-08T16:33:08.589Z,2.10
2023-01-08T16:34:08.539Z,2.10
2023-01-08T16:35:08.505Z,2.00
2023-01-08T16:36:08.560Z,1.90
2023-01-08T16:37:08.532Z,2.00
2023-01-08T16:38:08.497Z,2.00
2023-01-08T16:39:08.482Z,2.00
2023-01-08T16:40:08.443Z,1.70
2023-01-08T16:41:08.473Z,1.50
2023-01-08T16:42:08.487Z,1.50
2023-01-08T16:43:08.414Z,1.50
2023-01-08T16:44:08.408Z,1.70
2023-01-08T16:45:08.376Z,1.90
2023-01-08T16:46:08.459Z,1.80
2023-01-08T16:47:08.401Z,1.80
2023-01-08T16:48:08.358Z,1.70
2023-01-08T16:49:08.359Z,1.80
2023-01-08T16:50:08.343Z,1.60
2023-01-08T16:51:08.405Z,1.60
2023-01-08T16:52:08.299Z,1.30
2023-01-08T16:53:08.277Z,1.70
2023-01-08T16:54:08.276Z,1.80
2023-01-08T16:55:08.248Z,1.70
2023-01-08T16:56:08.298Z,3.00
2023-01-08T16:57:08.237Z,4.90
2023-01-08T16:58:08.212Z,5.00
2023-01-08T16:59:18.201Z,4.70
2023-01-08T17:00:09.202Z,4.50
2023-01-08T17:01:08.216Z,3.30
2023-01-08T17:02:08.180Z,5.20
2023-01-08T17:03:08.149Z,5.10
2023-01-08T17:04:08.302Z,4.50
2023-01-08T17:05:08.142Z,3.70
2023-01-08T17:06:08.175Z,4.60
2023-01-08T17:07:08.099Z,3.80
2023-01-08T17:08:08.086Z,3.80
2023-01-08T17:09:10.214Z,3.70
2023-01-08T17:10:08.076Z,2.80
2023-01-08T17:11:08.045Z,2.70
2023-01-08T17:12:08.045Z,3.10
2023-01-08T17:13:08.049Z,3.40
2023-01-08T17:14:08.019Z,4.50
2023-01-08T17:15:07.993Z,3.10
2023-01-08T17:16:08.059Z,4.00
2023-01-08T17:17:07.968Z,2.80
2023-01-08T17:18:07.954Z,3.80
2023-01-08T17:19:07.959Z,3.90
2023-01-08T17:20:07.925Z,2.70
2023-01-08T17:21:07.924Z,3.90
2023-01-08T17:22:07.894Z,3.60
2023-01-08T17:23:07.893Z,2.70
2023-01-08T17:24:07.883Z,2.60
2023-01-08T17:25:07.861Z,2.90
2023-01-08T17:26:07.844Z,1.90
2023-01-08T17:27:07.833Z,2.90
2023-01-08T17:28:07.831Z,4.10
2023-01-08T17:29:07.822Z,3.50
2023-01-08T17:30:07.801Z,3.50
2023-01-08T17:31:07.823Z,2.20
2023-01-08T17:32:07.763Z,3.40
2023-01-08T17:33:07.804Z,2.20
2023-01-08T17:34:07.765Z,2.70
2023-01-08T17:35:07.731Z,2.00
2023-01-08T17:36:07.712Z,2.30
2023-01-08T17:37:07.719Z,1.30
2023-01-08T17:38:07.690Z,1.90
2023-01-08T17:39:07.710Z,1.50
2023-01-08T17:40:07.660Z,1.60
2023-01-08T17:41:07.650Z,1.40
2023-01-08T17:42:07.645Z,1.40
2023-01-08T17:43:07.621Z,3.00
2023-01-08T17:44:07.630Z,1.50
2023-01-08T17:45:07.607Z,1.60
2023-01-08T17:46:07.650Z,1.80
2023-01-08T17:47:07.583Z,1.10
2023-01-08T17:48:07.591Z,1.10
2023-01-08T17:49:07.560Z,1.30
2023-01-08T17:50:07.539Z,1.60
2023-01-08T17:51:09.546Z,1.20
2023-01-08T17:52:07.515Z,1.20
2023-01-08T17:53:07.503Z,1.10
2023-01-08T17:54:07.508Z,0.90
2023-01-08T17:55:07.491Z,1.50
2023-01-08T17:56:07.461Z,1.00
2023-01-08T17:57:07.447Z,1.00
2023-01-08T17:58:07.428Z,1.40
2023-01-08T17:59:07.419Z,1.10
2023-01-08T18:00:07.440Z,1.20
2023-01-08T18:01:07.439Z,1.20
2023-01-08T18:02:07.494Z,1.20
2023-01-08T18:03:07.429Z,1.10
2023-01-08T18:04:07.374Z,1.80
2023-01-08T18:05:07.406Z,1.60
2023-01-08T18:06:07.348Z,1.60
2023-01-08T18:07:07.315Z,1.60
2023-01-08T18:08:07.317Z,1.70
2023-01-08T18:09:07.308Z,1.70
2023-01-08T18:10:07.295Z,1.50
2023-01-08T18:11:07.270Z,1.40
2023-01-08T18:12:07.247Z,1.40
2023-01-08T18:13:07.237Z,1.20
2023-01-08T18:14:07.249Z,1.40
2023-01-08T18:15:07.215Z,1.80
2023-01-08T18:16:07.261Z,2.30
2023-01-08T18:17:07.185Z,2.40
2023-01-08T18:18:07.168Z,2.70
2023-01-08T18:19:07.156Z,2.70
2023-01-08T18:20:07.234Z,2.60
2023-01-08T18:21:07.177Z,3.00
2023-01-08T18:22:07.170Z,2.40
2023-01-08T18:23:07.163Z,2.80
2023-01-08T18:24:07.132Z,4.10
2023-01-08T18:25:07.190Z,2.30
2023-01-08T18:26:07.216Z,3.50
2023-01-08T18:27:07.166Z,3.40
2023-01-08T18:28:07.078Z,3.40
2023-01-08T18:29:07.099Z,3.50
2023-01-08T18:30:07.204Z,2.50
2023-01-08T18:31:07.086Z,3.10
2023-01-08T18:32:07.066Z,4.10
2023-01-08T18:33:07.037Z,4.30
2023-01-08T18:34:06.962Z,4.10